Time;durP1;ratioP1;P1;durP2;ratioP2;P2;SDS_P1;SDS_P2;PMS_P1;PMS_P2;Temp;Humidity;BMP_temperature;BMP_pressure;BME280_temperature;BME280_humidity;BME280_pressure;Samples;Min_cycle;Max_cycle;Signal;HPM_P1;HPM_P2
2023/09/08 00:01:27;;;;;;;14.25;12.05;;;16.80;99.90;;;;;;5013241;28;20072;-77
2023/09/08 00:03:52;;;;;;;15.80;11.05;;;16.80;99.90;;;;;;5015175;28;20052;-77
2023/09/08 00:06:19;;;;;;;13.05;10.50;;;16.70;99.90;;;;;;5017014;28;20037;-77
2023/09/08 00:08:44;;;;;;;12.45;11.13;;;16.60;99.90;;;;;;5017363;28;20030;-77
2023/09/08 00:11:10;;;;;;;22.05;12.05;;;16.50;99.90;;;;;;5017534;28;20037;-77
2023/09/08 00:13:35;;;;;;;12.13;10.50;;;16.60;99.90;;;;;;5017156;28;20468;-77
2023/09/08 00:16:01;;;;;;;13.90;11.80;;;16.50;99.90;;;;;;5016950;28;20065;-77
2023/09/08 00:18:27;;;;;;;15.05;11.95;;;16.40;99.90;;;;;;5017574;28;20478;-77
2023/09/08 00:20:52;;;;;;;13.52;12.13;;;16.40;99.90;;;;;;5017153;28;20076;-78
2023/09/08 00:23:18;;;;;;;17.73;12.77;;;16.40;99.90;;;;;;5017063;28;20021;-77
2023/09/08 00:25:43;;;;;;;16.98;12.95;;;16.30;99.90;;;;;;5016881;28;20033;-77
2023/09/08 00:28:09;;;;;;;14.00;12.52;;;16.30;99.90;;;;;;5017382;28;20495;-77
2023/09/08 00:30:34;;;;;;;15.43;12.45;;;16.20;99.90;;;;;;5016374;28;20025;-77
2023/09/08 00:33:00;;;;;;;16.08;13.10;;;16.20;99.90;;;;;;5016395;28;20037;-78
2023/09/08 00:35:26;;;;;;;17.80;13.63;;;16.20;99.90;;;;;;5016718;28;20121;-77
2023/09/08 00:37:51;;;;;;;16.08;13.05;;;16.10;99.90;;;;;;5016871;28;20487;-77
2023/09/08 00:40:17;;;;;;;19.33;14.27;;;16.10;99.90;;;;;;5017242;28;20092;-77
2023/09/08 00:42:43;;;;;;;16.35;13.13;;;16.10;99.90;;;;;;5017141;28;20424;-77
2023/09/08 00:45:08;;;;;;;17.75;14.07;;;16.10;99.90;;;;;;5016555;28;20399;-77
2023/09/08 00:47:35;;;;;;;17.05;14.43;;;16.00;99.90;;;;;;5016959;28;20037;-78
2023/09/08 00:50:04;;;;;;;19.17;14.60;;;16.00;99.90;;;;;;5016677;28;20029;-78
2023/09/08 00:52:32;;;;;;;15.50;13.90;;;16.00;99.90;;;;;;5016598;28;20345;-78
2023/09/08 00:54:59;;;;;;;17.88;14.55;;;16.00;99.90;;;;;;5016820;28;20030;-77
2023/09/08 00:57:24;;;;;;;16.00;14.02;;;15.90;99.90;;;;;;5016166;28;20160;-77
2023/09/08 00:59:50;;;;;;;15.18;13.40;;;15.90;99.90;;;;;;5016730;28;20116;-77
2023/09/08 01:02:16;;;;;;;15.38;13.65;;;15.80;99.90;;;;;;5016001;28;20022;-77
2023/09/08 01:04:42;;;;;;;18.23;14.18;;;15.80;99.90;;;;;;5015532;28;20061;-77
2023/09/08 01:07:09;;;;;;;17.75;14.07;;;15.80;99.90;;;;;;5016451;28;20033;-77
2023/09/08 01:09:35;;;;;;;21.65;14.60;;;15.80;99.90;;;;;;5016340;28;20030;-77
2023/09/08 01:12:05;;;;;;;21.50;15.00;;;15.70;99.90;;;;;;5016653;28;20022;-77
2023/09/08 01:14:31;;;;;;;17.48;14.50;;;15.80;99.90;;;;;;5016040;28;20034;-77
2023/09/08 01:16:56;;;;;;;18.77;15.43;;;15.70;99.90;;;;;;5015879;28;20391;-77
2023/09/08 01:19:22;;;;;;;15.38;13.75;;;15.70;99.90;;;;;;5016519;28;20036;-77
2023/09/08 01:22:14;;;;;;;19.27;15.73;;;15.70;99.90;;;;;;5016290;28;20029;-77
2023/09/08 01:25:19;;;;;;;20.35;15.50;;;15.60;99.90;;;;;;5015935;28;20030;-76
2023/09/08 01:27:49;;;;;;;20.25;15.50;;;15.60;99.90;;;;;;5016150;28;20026;-77
2023/09/08 01:30:15;;;;;;;18.35;15.60;;;15.50;99.90;;;;;;5016280;28;20026;-77
2023/09/08 01:32:42;;;;;;;19.90;15.27;;;15.50;99.90;;;;;;5015929;28;20030;-77
2023/09/08 01:35:09;;;;;;;19.98;16.75;;;15.50;99.90;;;;;;5016995;28;20080;-77
2023/09/08 01:37:34;;;;;;;21.65;16.67;;;15.50;99.90;;;;;;5016185;28;20105;-77
2023/09/08 01:40:00;;;;;;;23.02;16.45;;;15.50;99.90;;;;;;5016073;28;20472;-76
2023/09/08 01:42:25;;;;;;;19.35;16.38;;;15.40;99.90;;;;;;5015723;28;20156;-76
2023/09/08 01:44:51;;;;;;;22.77;17.42;;;15.40;99.90;;;;;;5015534;28;20380;-76
2023/09/08 01:47:17;;;;;;;19.38;15.57;;;15.40;99.90;;;;;;5015680;28;20095;-76
2023/09/08 01:49:42;;;;;;;22.50;17.98;;;15.40;99.90;;;;;;5015253;28;20037;-76
2023/09/08 01:52:08;;;;;;;21.42;18.00;;;15.40;99.90;;;;;;5015120;28;20033;-76
2023/09/08 01:54:33;;;;;;;24.90;17.45;;;15.40;99.90;;;;;;5015389;28;20124;-76
2023/09/08 01:56:59;;;;;;;19.83;17.08;;;15.40;99.90;;;;;;5015304;28;20372;-77
2023/09/08 01:59:25;;;;;;;21.85;18.13;;;15.40;99.90;;;;;;5015293;28;20057;-76
2023/09/08 02:01:50;;;;;;;23.30;17.63;;;15.40;99.90;;;;;;5015527;28;20022;-76
2023/09/08 02:04:16;;;;;;;24.63;18.73;;;15.40;99.90;;;;;;5014182;28;20049;-76
2023/09/08 02:06:41;;;;;;;24.25;18.15;;;15.40;99.90;;;;;;5015547;28;20041;-76
2023/09/08 02:09:09;;;;;;;24.75;19.17;;;15.30;99.90;;;;;;5014889;28;20022;-77
2023/09/08 02:11:35;;;;;;;22.15;17.90;;;15.30;99.90;;;;;;5014488;28;20034;-77
2023/09/08 02:14:01;;;;;;;20.35;17.75;;;15.30;99.90;;;;;;5014833;28;20029;-76
2023/09/08 02:16:26;;;;;;;23.02;18.52;;;15.30;99.90;;;;;;5015269;28;20120;-76
2023/09/08 02:18:52;;;;;;;23.33;17.73;;;15.30;99.90;;;;;;5015100;28;20124;-76
2023/09/08 02:21:17;;;;;;;25.10;20.50;;;15.30;99.90;;;;;;5015232;28;20029;-76
2023/09/08 02:23:43;;;;;;;22.33;19.30;;;15.40;99.90;;;;;;5015179;28;20080;-77
2023/09/08 02:26:08;;;;;;;21.13;18.60;;;15.40;99.90;;;;;;5013699;28;20037;-77
2023/09/08 02:28:34;;;;;;;25.77;18.25;;;15.40;99.90;;;;;;5015080;28;20109;-77
2023/09/08 02:31:00;;;;;;;22.85;18.30;;;15.40;99.90;;;;;;5015062;28;20025;-76
2023/09/08 02:33:25;;;;;;;23.17;18.17;;;15.40;99.90;;;;;;5015033;28;20033;-76
2023/09/08 02:35:51;;;;;;;22.98;18.85;;;15.40;99.90;;;;;;5014980;28;20038;-76
2023/09/08 02:38:17;;;;;;;25.33;18.58;;;15.30;99.90;;;;;;5014975;28;20032;-77
2023/09/08 02:40:43;;;;;;;23.55;17.90;;;15.30;99.90;;;;;;5014833;28;20112;-76
2023/09/08 02:43:08;;;;;;;23.48;18.55;;;15.40;99.90;;;;;;5014871;28;20030;-76
2023/09/08 02:45:34;;;;;;;21.85;17.65;;;15.50;99.90;;;;;;5014130;28;20080;-76
2023/09/08 02:48:00;;;;;;;22.95;18.45;;;15.50;99.90;;;;;;5014758;28;20112;-76
2023/09/08 02:50:25;;;;;;;23.75;18.95;;;15.50;99.90;;;;;;5014429;28;20029;-76
2023/09/08 02:52:52;;;;;;;22.67;17.33;;;15.50;99.90;;;;;;5014414;28;20029;-76
2023/09/08 02:55:17;;;;;;;20.52;16.10;;;15.50;99.90;;;;;;5014460;28;20034;-77
2023/09/08 02:57:43;;;;;;;21.52;16.65;;;15.50;99.90;;;;;;5013453;28;20079;-76
2023/09/08 03:00:09;;;;;;;21.10;17.38;;;15.50;99.90;;;;;;5014121;28;20109;-76
2023/09/08 03:02:34;;;;;;;24.15;17.33;;;15.40;99.90;;;;;;5013740;28;20022;-75
2023/09/08 03:05:01;;;;;;;26.20;19.38;;;15.50;99.90;;;;;;5014167;28;20063;-76
2023/09/08 03:07:27;;;;;;;23.08;16.92;;;15.50;99.90;;;;;;5014233;28;20388;-76
2023/09/08 03:09:53;;;;;;;20.58;16.83;;;15.40;99.90;;;;;;5014499;28;20037;-76
2023/09/08 03:12:19;;;;;;;19.95;17.08;;;15.40;99.90;;;;;;5014447;28;20032;-76
2023/09/08 03:14:44;;;;;;;20.17;17.35;;;15.40;99.90;;;;;;5014193;28;20387;-77
2023/09/08 03:17:11;;;;;;;21.20;17.77;;;15.40;99.90;;;;;;5014168;28;20045;-77
2023/09/08 03:19:37;;;;;;;20.35;17.40;;;15.50;99.90;;;;;;5014472;28;20129;-76
2023/09/08 03:22:02;;;;;;;18.55;15.77;;;15.40;99.90;;;;;;5013604;28;20069;-76
2023/09/08 03:24:28;;;;;;;21.80;16.67;;;15.40;99.90;;;;;;5013631;28;20034;-77
2023/09/08 03:26:54;;;;;;;24.25;17.27;;;15.40;99.90;;;;;;5013771;28;20360;-76
2023/09/08 03:29:19;;;;;;;23.17;17.23;;;15.40;99.90;;;;;;5014163;28;20030;-77
2023/09/08 03:31:45;;;;;;;19.25;17.25;;;15.40;99.90;;;;;;5014334;28;20037;-76
2023/09/08 03:34:11;;;;;;;20.95;16.60;;;15.40;99.90;;;;;;5013811;28;20472;-76
2023/09/08 03:36:36;;;;;;;19.60;16.92;;;15.40;99.90;;;;;;5014265;28;20112;-76
2023/09/08 03:39:03;;;;;;;19.33;15.85;;;15.40;99.90;;;;;;5018083;28;20037;-76
2023/09/08 03:41:28;;;;;;;20.65;15.38;;;15.40;99.90;;;;;;5018245;28;20521;-76
2023/09/08 03:43:54;;;;;;;19.20;15.93;;;15.40;99.90;;;;;;5017845;28;20117;-77
2023/09/08 03:46:20;;;;;;;19.30;15.75;;;15.40;99.90;;;;;;5017801;28;20026;-77
2023/09/08 03:48:46;;;;;;;19.80;15.60;;;15.30;99.90;;;;;;5018027;28;20089;-76
2023/09/08 03:51:12;;;;;;;20.27;15.45;;;15.20;99.90;;;;;;5017253;28;20038;-76
2023/09/08 03:53:37;;;;;;;20.50;16.35;;;15.20;99.90;;;;;;5017924;28;20030;-76
2023/09/08 03:56:03;;;;;;;18.88;15.50;;;15.20;99.90;;;;;;5017919;28;20076;-76
2023/09/08 03:58:29;;;;;;;22.17;16.27;;;15.30;99.90;;;;;;5017642;28;20029;-76
2023/09/08 04:00:55;;;;;;;20.70;17.45;;;15.20;99.90;;;;;;5016964;28;20026;-76
2023/09/08 04:03:20;;;;;;;18.73;15.45;;;15.30;99.90;;;;;;5017384;28;20042;-76
2023/09/08 04:05:46;;;;;;;17.33;14.88;;;15.40;99.90;;;;;;5016973;28;20403;-76
2023/09/08 04:08:12;;;;;;;19.25;15.70;;;15.40;99.90;;;;;;5017355;28;20034;-75
2023/09/08 04:10:37;;;;;;;17.17;14.13;;;15.40;99.90;;;;;;5017415;28;20029;-76
2023/09/08 04:13:04;;;;;;;19.80;15.60;;;15.30;99.90;;;;;;5017090;28;20025;-76
2023/09/08 04:15:29;;;;;;;19.40;16.35;;;15.40;99.90;;;;;;5016962;28;20383;-77
2023/09/08 04:17:57;;;;;;;17.63;15.70;;;15.30;99.90;;;;;;5016675;28;20116;-77
2023/09/08 04:20:22;;;;;;;19.10;15.15;;;15.30;99.90;;;;;;5016840;28;20037;-76
2023/09/08 04:22:48;;;;;;;20.10;16.23;;;15.30;99.90;;;;;;5017577;28;20599;-76
2023/09/08 04:25:14;;;;;;;23.20;16.27;;;15.40;99.90;;;;;;5016102;28;20065;-75
2023/09/08 04:27:40;;;;;;;19.55;16.17;;;15.40;99.90;;;;;;5017080;28;20033;-76
2023/09/08 04:30:06;;;;;;;19.08;16.08;;;15.50;99.90;;;;;;5016644;28;20028;-76
2023/09/08 04:32:32;;;;;;;23.50;15.68;;;15.50;99.90;;;;;;5017265;28;20484;-76
2023/09/08 04:34:58;;;;;;;20.88;16.05;;;15.40;99.90;;;;;;5016844;28;20029;-75
2023/09/08 04:37:24;;;;;;;19.67;16.50;;;15.50;99.90;;;;;;5016645;28;20494;-76
2023/09/08 04:39:49;;;;;;;21.27;17.48;;;15.50;99.90;;;;;;5016809;28;20408;-75
2023/09/08 04:42:15;;;;;;;21.00;16.90;;;15.50;99.90;;;;;;5017078;28;20353;-75
2023/09/08 04:44:41;;;;;;;22.45;16.48;;;15.50;99.90;;;;;;5016356;28;20026;-76
2023/09/08 04:47:06;;;;;;;19.38;14.98;;;15.50;99.90;;;;;;5016756;28;20026;-75
2023/09/08 04:49:32;;;;;;;18.77;14.50;;;15.50;99.90;;;;;;5015936;28;20114;-76
2023/09/08 04:51:58;;;;;;;18.35;14.40;;;15.50;99.90;;;;;;5016483;28;20124;-76
2023/09/08 04:54:26;;;;;;;17.00;13.90;;;15.40;99.90;;;;;;5016649;28;20026;-76
2023/09/08 04:56:52;;;;;;;18.02;15.15;;;15.40;99.90;;;;;;5016350;28;20026;-76
2023/09/08 04:59:18;;;;;;;23.30;15.52;;;15.30;99.90;;;;;;5016544;28;20030;-76
2023/09/08 05:01:44;;;;;;;17.02;14.63;;;15.30;99.90;;;;;;5017315;28;20026;-76
2023/09/08 05:04:10;;;;;;;22.52;17.05;;;15.30;99.90;;;;;;5015601;28;20049;-76
2023/09/08 05:06:36;;;;;;;22.40;16.55;;;15.30;99.90;;;;;;5016032;28;20026;-76
2023/09/08 05:09:01;;;;;;;19.73;15.48;;;15.30;99.90;;;;;;5016316;28;20026;-76
2023/09/08 05:11:27;;;;;;;19.75;17.30;;;15.40;99.90;;;;;;5016291;28;20029;-75
2023/09/08 05:13:53;;;;;;;20.60;16.40;;;15.40;99.90;;;;;;5015880;28;20057;-76
2023/09/08 05:16:25;;;;;;;19.50;16.33;;;15.40;99.90;;;;;;5015799;28;20033;-76
2023/09/08 05:18:51;;;;;;;22.38;16.92;;;15.40;99.90;;;;;;5016157;28;20386;-76
2023/09/08 05:21:17;;;;;;;23.90;17.38;;;15.50;99.90;;;;;;5016311;28;20026;-76
2023/09/08 05:23:43;;;;;;;18.92;15.38;;;15.50;99.90;;;;;;5016255;28;20434;-75
2023/09/08 05:26:08;;;;;;;21.00;16.20;;;15.50;99.90;;;;;;5015790;28;20117;-76
2023/09/08 05:28:34;;;;;;;19.60;16.38;;;15.50;99.90;;;;;;5015641;28;20022;-76
2023/09/08 05:30:59;;;;;;;20.83;16.90;;;15.50;99.90;;;;;;5015661;28;20026;-76
2023/09/08 05:33:25;;;;;;;21.08;16.83;;;15.60;99.90;;;;;;5015885;28;20030;-76
2023/09/08 05:35:51;;;;;;;23.25;17.00;;;15.60;99.90;;;;;;5015747;28;20383;-76
2023/09/08 05:38:17;;;;;;;18.33;15.85;;;15.70;99.90;;;;;;5015954;28;20053;-76
2023/09/08 05:40:43;;;;;;;21.10;17.27;;;15.70;99.90;;;;;;5015943;28;20083;-76
2023/09/08 05:43:08;;;;;;;20.58;16.67;;;15.80;99.90;;;;;;5015471;28;20113;-77
2023/09/08 05:45:34;;;;;;;23.00;17.42;;;15.90;99.90;;;;;;5015363;28;20500;-75
2023/09/08 05:48:00;;;;;;;21.70;16.60;;;16.00;99.90;;;;;;5015320;28;20037;-76
2023/09/08 05:50:26;;;;;;;27.90;17.08;;;16.30;99.90;;;;;;5015745;28;20040;-75
2023/09/08 05:52:52;;;;;;;19.20;14.95;;;16.70;99.90;;;;;;5015725;28;20511;-76
2023/09/08 05:55:17;;;;;;;20.58;14.60;;;17.70;99.90;;;;;;5014757;28;20444;-76
2023/09/08 05:57:43;;;;;;;16.08;11.63;;;19.10;99.90;;;;;;5014361;28;20030;-77
2023/09/08 06:00:09;;;;;;;18.77;12.00;;;21.00;42.20;;;;;;5011309;28;20124;-75
2023/09/08 06:02:35;;;;;;;23.90;12.95;;;22.20;1.00;;;;;;5010496;28;20026;-75
2023/09/08 06:05:01;;;;;;;17.75;11.05;;;22.10;99.90;;;;;;5013727;28;20034;-76
2023/09/08 06:07:26;;;;;;;18.67;11.25;;;21.70;99.90;;;;;;5014168;28;20040;-76
2023/09/08 06:09:52;;;;;;;14.73;10.40;;;21.30;99.90;;;;;;5014540;28;20053;-76
2023/09/08 06:12:17;;;;;;;12.20;9.23;;;21.20;1.00;;;;;;5014767;28;20088;-77
2023/09/08 06:14:43;;;;;;;14.63;10.07;;;21.50;1.00;;;;;;5017653;28;20480;-76
2023/09/08 06:17:10;;;;;;;18.48;10.10;;;22.50;98.90;;;;;;5015762;28;20041;-77
2023/09/08 06:19:35;;;;;;;19.40;10.77;;;22.60;99.90;;;;;;5014543;28;20030;-77
2023/09/08 06:22:01;;;;;;;20.10;10.13;;;22.40;99.90;;;;;;5013582;28;20120;-77
2023/09/08 06:24:26;;;;;;;14.23;9.38;;;23.20;1.00;;;;;;5014100;28;20049;-77
2023/09/08 06:26:52;;;;;;;12.43;9.05;;;24.20;54.40;;;;;;5014563;28;20079;-77
2023/09/08 06:29:18;;;;;;;14.73;8.95;;;25.50;99.90;;;;;;5013923;28;20022;-77
2023/09/08 06:31:43;;;;;;;17.42;8.23;;;26.60;1.00;;;;;;5013953;28;20022;-77
2023/09/08 06:34:09;;;;;;;13.63;8.25;;;27.20;1.00;;;;;;5014154;28;20432;-76
2023/09/08 06:36:35;;;;;;;12.13;8.30;;;27.90;99.90;;;;;;5014676;28;20097;-78
2023/09/08 06:39:00;;;;;;;14.27;8.57;;;28.50;1.00;;;;;;5013447;28;20391;-76
2023/09/08 06:41:27;;;;;;;14.77;8.35;;;28.40;1.00;;;;;;5014243;28;20029;-77
2023/09/08 06:43:53;;;;;;;10.38;7.57;;;29.20;99.90;;;;;;5014201;28;20484;-78
2023/09/08 06:46:18;;;;;;;16.38;7.78;;;29.10;99.90;;;;;;5012794;28;20092;-78
2023/09/08 06:48:44;;;;;;;13.00;7.70;;;;;;;;;;5014477;28;20030;-78
2023/09/08 06:51:10;;;;;;;10.75;7.10;;;29.90;99.90;;;;;;5014145;28;20408;-78
2023/09/08 06:53:36;;;;;;;8.82;7.45;;;29.70;99.90;;;;;;5013604;28;20033;-78
2023/09/08 06:56:02;;;;;;;17.77;7.32;;;29.40;99.90;;;;;;5013586;28;20037;-78
2023/09/08 06:58:28;;;;;;;8.73;6.40;;;29.70;99.90;;;;;;5013707;28;20026;-78
2023/09/08 07:00:54;;;;;;;8.57;6.53;;;29.20;99.90;;;;;;5012474;28;20419;-78
2023/09/08 07:03:22;;;;;;;8.75;6.45;;;29.60;99.90;;;;;;5013224;28;20038;-79
2023/09/08 07:05:48;;;;;;;12.00;6.35;;;30.40;99.90;;;;;;5013460;28;20121;-78
2023/09/08 07:08:13;;;;;;;9.73;6.47;;;29.30;99.90;;;;;;5013975;28;20112;-76
2023/09/08 07:10:39;;;;;;;13.95;7.22;;;29.60;99.90;;;;;;5010100;28;20025;-79
2023/09/08 07:13:05;;;;;;;10.98;6.63;;;30.00;99.90;;;;;;5012944;28;20030;-79
2023/09/08 07:15:30;;;;;;;7.93;6.32;;;30.10;99.90;;;;;;5013437;28;20475;-79
2023/09/08 07:17:56;;;;;;;9.23;6.00;;;29.40;99.90;;;;;;5010805;28;20032;-79
2023/09/08 07:20:21;;;;;;;8.05;5.85;;;30.70;99.90;;;;;;5014187;28;20442;-79
2023/09/08 07:22:47;;;;;;;6.28;5.68;;;31.00;90.80;;;;;;5013281;28;20511;-79
2023/09/08 07:25:13;;;;;;;7.30;5.68;;;30.00;86.00;;;;;;5014251;28;20034;-79
2023/09/08 07:27:38;;;;;;;8.23;6.00;;;30.50;99.90;;;;;;5011926;28;20052;-78
2023/09/08 07:30:05;;;;;;;6.72;6.03;;;30.30;97.40;;;;;;5005822;28;20033;-79
2023/09/08 07:32:31;;;;;;;5.65;4.95;;;31.40;42.30;;;;;;5012223;28;20025;-75
2023/09/08 07:34:56;;;;;;;6.47;5.80;;;31.30;48.50;;;;;;5013621;28;20042;-79
2023/09/08 07:37:23;;;;;;;8.55;5.60;;;;;;;;;;5013335;28;20037;-79
2023/09/08 07:39:49;;;;;;;9.48;5.47;;;31.80;1.00;;;;;;5013445;28;20061;-79
2023/09/08 07:42:15;;;;;;;8.55;5.20;;;31.60;1.00;;;;;;5013845;28;20036;-78
2023/09/08 07:44:41;;;;;;;10.52;5.55;;;31.50;1.00;;;;;;5015563;28;20109;-79
2023/09/08 07:47:06;;;;;;;5.93;5.30;;;32.20;13.90;;;;;;5012634;28;20037;-79
2023/09/08 07:49:34;;;;;;;8.85;5.55;;;32.30;1.00;;;;;;5012990;28;20034;-78
2023/09/08 07:51:59;;;;;;;8.07;5.53;;;32.40;1.00;;;;;;5014161;28;20038;-79
2023/09/08 07:54:25;;;;;;;5.82;4.85;;;33.10;1.00;;;;;;5013075;28;20113;-79
2023/09/08 07:56:51;;;;;;;8.30;4.95;;;33.40;1.00;;;;;;5013597;28;20387;-78
2023/09/08 07:59:16;;;;;;;9.25;4.95;;;34.10;96.20;;;;;;5016129;28;20026;-79
2023/09/08 08:01:42;;;;;;;8.65;5.07;;;33.20;63.70;;;;;;5012688;28;20137;-79
2023/09/08 08:04:08;;;;;;;6.60;5.00;;;33.30;18.40;;;;;;5013187;28;20050;-79
2023/09/08 08:06:34;;;;;;;10.32;5.13;;;33.60;1.00;;;;;;5012379;28;20037;-78
2023/09/08 08:08:59;;;;;;;6.97;5.43;;;34.50;1.00;;;;;;5012552;28;20037;-80
2023/09/08 08:11:25;;;;;;;10.20;5.70;;;33.60;1.00;;;;;;5013053;28;20500;-79
2023/09/08 08:13:51;;;;;;;8.15;4.90;;;33.30;1.00;;;;;;5012819;28;20575;-79
2023/09/08 08:16:17;;;;;;;5.55;4.55;;;33.00;1.00;;;;;;5011895;28;20033;-79
2023/09/08 08:18:43;;;;;;;6.13;4.80;;;33.50;1.00;;;;;;5011756;28;20125;-78
2023/09/08 08:21:08;;;;;;;5.90;4.78;;;33.30;1.00;;;;;;5013149;28;20484;-79
2023/09/08 08:23:35;;;;;;;15.20;5.53;;;33.00;1.00;;;;;;5013342;28;20088;-79
2023/09/08 08:26:00;;;;;;;5.68;4.63;;;33.40;1.00;;;;;;5016197;28;20495;-79
2023/09/08 08:28:26;;;;;;;12.25;5.28;;;33.40;1.00;;;;;;5017328;28;20030;-79
2023/09/08 08:30:52;;;;;;;6.88;4.38;;;34.20;1.00;;;;;;5012703;28;20026;-79
2023/09/08 08:33:20;;;;;;;6.32;4.60;;;35.00;1.00;;;;;;5017004;28;20036;-79
2023/09/08 08:35:53;;;;;;;6.57;5.22;;;35.20;1.00;;;;;;5016267;28;20117;-78
2023/09/08 08:38:19;;;;;;;5.70;4.95;;;33.50;1.00;;;;;;5016420;28;20522;-79
2023/09/08 08:40:45;;;;;;;7.97;4.80;;;33.60;1.00;;;;;;5017105;28;20058;-79
2023/09/08 08:43:11;;;;;;;14.98;5.15;;;34.30;1.00;;;;;;5017045;28;20026;-79
2023/09/08 08:45:39;;;;;;;8.18;4.85;;;33.90;1.00;;;;;;5016592;28;20037;-79
2023/09/08 08:48:08;;;;;;;7.93;4.75;;;33.90;1.00;;;;;;5016307;28;20030;-80
2023/09/08 08:50:35;;;;;;;7.10;4.72;;;34.60;1.00;;;;;;5016772;28;20484;-80
2023/09/08 08:53:02;;;;;;;9.40;4.47;;;33.80;1.00;;;;;;5015813;28;20388;-80
2023/09/08 08:55:30;;;;;;;7.43;4.55;;;33.60;1.00;;;;;;5016494;28;20030;-79
2023/09/08 08:58:02;;;;;;;8.10;5.00;;;34.10;1.00;;;;;;5016658;28;20476;-80
2023/09/08 09:00:28;;;;;;;7.43;4.88;;;34.10;1.00;;;;;;5015586;28;20064;-80
2023/09/08 09:02:55;;;;;;;9.45;5.03;;;34.70;1.00;;;;;;5014807;28;20380;-79
2023/09/08 09:05:21;;;;;;;9.68;5.38;;;34.60;1.00;;;;;;5015425;28;20033;-79
2023/09/08 09:07:49;;;;;;;10.20;4.60;;;34.80;1.00;;;;;;5015860;28;20056;-79
2023/09/08 09:10:15;;;;;;;8.77;5.00;;;34.30;1.00;;;;;;5015454;28;20026;-79
2023/09/08 09:12:41;;;;;;;5.95;4.50;;;34.30;1.00;;;;;;5012374;28;20053;-79
2023/09/08 09:15:08;;;;;;;6.47;4.30;;;34.70;1.00;;;;;;5015219;28;20499;-79
2023/09/08 09:17:35;;;;;;;6.38;4.50;;;35.20;1.00;;;;;;5015141;28;20132;-79
2023/09/08 09:20:20;;;;;;;5.45;4.95;;;35.20;1.00;;;;;;5021883;28;20026;-80
2023/09/08 09:22:47;;;;;;;7.20;4.65;;;34.50;1.00;;;;;;5014063;28;20025;-79
2023/09/08 09:25:30;;;;;;;6.10;4.53;;;34.80;1.00;;;;;;5015272;28;20515;-79
2023/09/08 09:27:58;;;;;;;11.52;5.15;;;34.70;1.00;;;;;;5014741;28;20052;-79
2023/09/08 09:30:25;;;;;;;9.52;4.53;;;35.00;1.00;;;;;;5015839;28;20033;-79
2023/09/08 09:33:03;;;;;;;6.32;4.55;;;34.30;1.00;;;;;;5014658;28;20116;-79
2023/09/08 09:35:46;;;;;;;6.57;4.80;;;34.20;1.00;;;;;;5016025;28;20048;-78
2023/09/08 09:38:12;;;;;;;;;;;34.30;1.00;;;;;;5012268;28;20025;-79
2023/09/08 09:40:39;;;;;;;6.25;4.45;;;35.10;1.00;;;;;;5014809;28;19905;-79
2023/09/08 09:43:05;;;;;;;5.60;4.93;;;35.10;1.00;;;;;;5015181;28;20030;-79
2023/09/08 09:45:34;;;;;;;8.52;4.68;;;35.20;1.00;;;;;;5015823;28;20537;-79
2023/09/08 09:48:03;;;;;;;7.13;4.43;;;35.60;1.00;;;;;;5015278;28;20025;-79
2023/09/08 09:50:31;;;;;;;5.10;4.35;;;34.50;1.00;;;;;;5015542;28;20024;-78
2023/09/08 09:53:00;;;;;;;6.45;4.95;;;33.90;1.00;;;;;;5015272;28;20117;-79
2023/09/08 09:55:26;;;;;;;8.32;5.10;;;34.00;1.00;;;;;;5015532;28;20376;-78
2023/09/08 09:57:58;;;;;;;7.47;4.65;;;34.30;1.00;;;;;;5019621;28;20040;-80
2023/09/08 10:00:26;;;;;;;5.90;4.72;;;34.50;1.00;;;;;;5020077;28;20491;-80
2023/09/08 10:02:53;;;;;;;6.50;4.68;;;35.00;1.00;;;;;;5018735;28;20029;-79
2023/09/08 10:05:19;;;;;;;5.35;4.72;;;35.00;1.00;;;;;;5024995;28;20030;-80
2023/09/08 10:07:48;;;;;;;8.15;4.47;;;35.00;1.00;;;;;;5017510;28;20400;-79
2023/09/08 10:10:14;;;;;;;7.40;4.50;;;35.20;1.00;;;;;;5014751;28;20042;-78
2023/09/08 10:12:45;;;;;;;6.25;4.38;;;35.00;1.00;;;;;;5014684;28;20365;-77
2023/09/08 10:15:11;;;;;;;7.80;4.55;;;35.00;1.00;;;;;;5013389;28;20125;-77
2023/09/08 10:17:38;;;;;;;7.10;4.80;;;35.10;1.00;;;;;;5014040;28;20080;-78
2023/09/08 10:20:10;;;;;;;5.65;5.03;;;34.80;1.00;;;;;;5000062;28;20064;-79
2023/09/08 10:22:41;;;;;;;7.30;5.25;;;34.60;1.00;;;;;;5014093;28;20041;-78
2023/09/08 10:25:08;;;;;;;7.25;4.55;;;35.10;1.00;;;;;;5014963;28;20022;-79
2023/09/08 10:27:36;;;;;;;7.32;5.00;;;35.40;1.00;;;;;;5013947;28;20022;-79
2023/09/08 10:30:05;;;;;;;8.18;5.03;;;35.20;1.00;;;;;;5014754;28;20032;-79
2023/09/08 10:32:32;;;;;;;5.47;4.70;;;35.50;1.00;;;;;;5011848;28;20037;-79
2023/09/08 10:35:00;;;;;;;8.35;4.95;;;35.40;1.00;;;;;;5014344;28;20053;-79
2023/09/08 10:37:29;;;;;;;7.65;4.78;;;35.30;1.00;;;;;;5014970;28;20384;-79
2023/09/08 10:39:55;;;;;;;9.45;5.30;;;35.40;1.00;;;;;;5014243;28;20037;-79
2023/09/08 10:42:26;;;;;;;6.00;4.88;;;34.50;1.00;;;;;;5013654;28;20124;-78
2023/09/08 10:45:04;;;;;;;9.50;4.80;;;34.70;1.00;;;;;;5013862;28;20029;-78
2023/09/08 10:50:33;;;;;;;8.23;4.85;;;34.90;1.00;;;;;;5145700;27;20625;-77
2023/09/08 10:53:16;;;;;;;5.90;4.65;;;34.80;1.00;;;;;;5131781;28;20024;-77
2023/09/08 10:55:47;;;;;;;5.30;4.80;;;35.00;1.00;;;;;;5131466;28;20047;-78
2023/09/08 10:58:19;;;;;;;9.45;4.40;;;34.80;1.00;;;;;;5134852;27;20090;-77
2023/09/08 11:00:47;;;;;;;6.80;4.43;;;34.90;1.00;;;;;;5149285;27;20031;-78
2023/09/08 11:03:13;;;;;;;8.75;4.80;;;34.60;1.00;;;;;;5134946;27;20273;-77
2023/09/08 11:05:39;;;;;;;8.25;4.93;;;34.30;1.00;;;;;;5142899;27;20072;-77
2023/09/08 11:08:05;;;;;;;7.88;4.60;;;34.20;1.00;;;;;;5122122;28;20027;-78
2023/09/08 11:10:32;;;;;;;5.82;4.95;;;33.80;1.00;;;;;;5131810;28;20373;-77
2023/09/08 11:13:00;;;;;;;5.25;4.70;;;33.20;1.00;;;;;;5130158;27;20032;-77
2023/09/08 11:15:25;;;;;;;6.15;4.68;;;33.00;1.00;;;;;;5130479;27;20397;-77
2023/09/08 11:17:51;;;;;;;7.32;4.75;;;32.80;1.00;;;;;;5130344;28;20034;-76
2023/09/08 11:20:26;;;;;;;7.15;4.82;;;33.00;1.00;;;;;;5131347;27;20061;-76
2023/09/08 11:22:52;;;;;;;8.95;5.00;;;33.20;1.00;;;;;;5139421;27;20023;-77
2023/09/08 11:25:20;;;;;;;5.65;4.70;;;32.70;1.00;;;;;;5134406;27;20027;-77
2023/09/08 11:27:46;;;;;;;8.10;4.82;;;32.50;1.00;;;;;;5130949;28;20059;-77
2023/09/08 11:30:13;;;;;;;6.22;4.70;;;32.70;1.00;;;;;;5131371;28;20465;-78
2023/09/08 11:32:39;;;;;;;7.25;5.07;;;32.50;1.00;;;;;;5139395;27;20019;-77
2023/09/08 11:35:07;;;;;;;6.50;5.05;;;32.40;1.00;;;;;;5144217;27;20047;-77
2023/09/08 11:37:37;;;;;;;5.82;5.20;;;32.90;1.00;;;;;;5128824;27;20161;-77
2023/09/08 11:40:13;;;;;;;8.65;4.82;;;32.50;1.00;;;;;;5141979;27;20035;-79
2023/09/08 11:42:43;;;;;;;8.95;4.90;;;32.20;1.00;;;;;;5129869;28;20035;-78
2023/09/08 11:45:13;;;;;;;10.38;5.90;;;32.40;1.00;;;;;;5131659;28;20066;-78
2023/09/08 11:47:42;;;;;;;10.52;5.32;;;31.90;1.00;;;;;;5130808;27;20030;-77
2023/09/08 11:50:11;;;;;;;9.43;5.10;;;31.90;1.00;;;;;;5130276;27;20126;-77
2023/09/08 11:52:37;;;;;;;7.78;4.78;;;32.50;1.00;;;;;;5131127;28;20027;-77
2023/09/08 11:55:04;;;;;;;6.03;4.88;;;32.30;1.00;;;;;;5130307;28;20015;-78
2023/09/08 11:57:31;;;;;;;16.02;5.40;;;32.30;1.00;;;;;;5129572;28;20028;-77
2023/09/08 11:59:57;;;;;;;9.68;5.28;;;32.40;1.00;;;;;;5127732;28;20077;-78
2023/09/08 12:02:23;;;;;;;7.60;4.78;;;32.40;1.00;;;;;;5116646;28;20476;-77
2023/09/08 12:04:49;;;;;;;12.00;5.55;;;32.30;1.00;;;;;;5113975;27;20046;-77
2023/09/08 12:07:16;;;;;;;6.82;4.32;;;32.40;1.00;;;;;;5116278;27;20412;-77
2023/09/08 12:09:41;;;;;;;9.15;5.32;;;34.40;1.00;;;;;;5115251;27;20076;-77
2023/09/08 12:12:12;;;;;;;6.50;4.90;;;32.50;1.00;;;;;;5129157;27;20426;-78
2023/09/08 12:14:42;;;;;;;6.00;4.78;;;32.70;1.00;;;;;;5126292;27;20042;-77
2023/09/08 12:17:08;;;;;;;6.32;4.97;;;32.60;1.00;;;;;;5115880;28;20034;-78
2023/09/08 12:19:36;;;;;;;5.50;4.80;;;;;;;;;;5115281;27;20035;-78
2023/09/08 12:22:03;;;;;;;8.43;4.78;;;32.40;1.00;;;;;;5114219;27;20031;-78
2023/09/08 12:25:01;;;;;;;8.02;5.05;;;32.60;1.00;;;;;;5116748;28;20038;-78
2023/09/08 12:27:27;;;;;;;7.05;5.35;;;32.60;1.00;;;;;;5113845;27;20071;-76
2023/09/08 12:30:00;;;;;;;7.75;4.80;;;32.40;1.00;;;;;;5114789;27;20428;-78
2023/09/08 12:32:29;;;;;;;8.45;4.57;;;32.60;1.00;;;;;;5115680;27;20042;-78
2023/09/08 12:34:55;;;;;;;8.45;4.97;;;32.50;1.00;;;;;;5114108;28;20020;-78
2023/09/08 12:37:22;;;;;;;5.00;4.60;;;32.40;1.00;;;;;;5115140;27;20023;-78
2023/09/08 12:39:48;;;;;;;6.57;4.47;;;32.30;1.00;;;;;;5115095;28;20031;-78
2023/09/08 12:42:14;;;;;;;8.98;4.78;;;31.20;1.00;;;;;;5116467;28;20028;-78